Time;durP1;ratioP1;P1;durP2;ratioP2;P2;SDS_P1;SDS_P2;PMS_P1;PMS_P2;Temp;Humidity;BMP_temperature;BMP_pressure;BME280_temperature;BME280_humidity;BME280_pressure;Samples;Min_cycle;Max_cycle;Signal;HPM_P1;HPM_P2
2023/04/03 00:01:41;;;;;;;2.72;0.60;;;;;;;8.91;100.00;100451.34;5025860;28;20030;-76
2023/04/03 00:04:06;;;;;;;1.60;0.60;;;;;;;8.89;100.00;100453.25;5019472;28;20045;-76
2023/04/03 00:06:32;;;;;;;1.50;0.52;;;;;;;8.90;100.00;100446.28;5020585;28;20035;-76
2023/04/03 00:08:58;;;;;;;0.90;0.43;;;;;;;8.93;100.00;100449.44;5018541;28;20066;-77
2023/04/03 00:11:23;;;;;;;2.30;0.50;;;;;;;8.84;100.00;100447.63;5018449;28;20513;-76
2023/04/03 00:13:49;;;;;;;2.33;0.60;;;;;;;8.79;100.00;100452.41;5015378;28;20033;-76
2023/04/03 00:16:14;;;;;;;0.85;0.22;;;;;;;8.74;100.00;100439.00;5013582;28;20120;-76
2023/04/03 00:18:40;;;;;;;0.90;0.30;;;;;;;8.96;100.00;100448.34;5023777;28;20049;-76
2023/04/03 00:21:07;;;;;;;2.25;0.20;;;;;;;9.05;100.00;100446.69;5022324;28;20409;-76
2023/04/03 00:23:33;;;;;;;0.60;0.20;;;;;;;9.49;100.00;100447.94;5021259;28;20156;-76
2023/04/03 00:25:59;;;;;;;0.50;0.20;;;;;;;9.51;100.00;100449.44;5019272;28;20178;-76
2023/04/03 00:28:25;;;;;;;1.50;0.20;;;;;;;9.38;100.00;100445.50;5019212;28;20026;-76
2023/04/03 00:30:51;;;;;;;0.98;0.20;;;;;;;9.14;100.00;100448.50;5016087;28;20041;-76
2023/04/03 00:33:17;;;;;;;0.82;0.15;;;;;;;9.46;100.00;100449.03;5019989;28;20040;-76
2023/04/03 00:35:42;;;;;;;0.38;0.10;;;;;;;9.53;100.00;100446.69;5020216;28;20045;-76
2023/04/03 00:38:08;;;;;;;1.17;0.10;;;;;;;9.51;100.00;100449.44;5020400;28;20033;-76
2023/04/03 00:40:37;;;;;;;0.40;0.10;;;;;;;9.42;100.00;100445.09;5019876;28;20037;-76
2023/04/03 00:43:12;;;;;;;0.60;0.10;;;;;;;9.43;100.00;100427.72;5026640;28;20108;-76
2023/04/03 00:45:40;;;;;;;0.75;0.15;;;;;;;9.41;100.00;100429.63;5027191;28;20029;-76
2023/04/03 00:48:09;;;;;;;1.55;0.10;;;;;;;9.61;100.00;100439.03;5036523;28;20043;-76
2023/04/03 00:50:38;;;;;;;0.47;0.10;;;;;;;9.58;100.00;100434.09;5038687;28;20045;-76
2023/04/03 00:53:06;;;;;;;1.30;0.10;;;;;;;10.11;96.16;100438.78;5030524;28;20112;-76
2023/04/03 00:55:33;;;;;;;0.38;0.10;;;;;;;10.35;93.20;100425.31;5032564;28;20513;-76
2023/04/03 00:58:00;;;;;;;0.22;0.10;;;;;;;10.34;93.45;100421.06;5038354;28;20486;-76
2023/04/03 01:00:26;;;;;;;0.57;0.10;;;;;;;10.39;89.80;100408.44;5031462;28;20047;-76
2023/04/03 01:02:52;;;;;;;0.30;0.10;;;;;;;10.43;91.11;100417.56;5036971;28;20040;-76
2023/04/03 01:05:20;;;;;;;0.40;0.10;;;;;;;10.37;91.29;100416.38;5034746;28;20045;-76
2023/04/03 01:07:46;;;;;;;1.10;0.00;;;;;;;10.23;91.84;100406.44;5037410;28;20102;-77
2023/04/03 01:10:15;;;;;;;0.40;0.10;;;;;;;10.13;90.17;100410.81;5032692;28;20045;-76
2023/04/03 01:12:44;;;;;;;0.20;0.10;;;;;;;10.67;84.46;100422.25;5036714;28;20104;-74
2023/04/03 01:15:22;;;;;;;2.80;0.10;;;;;;;10.83;81.24;100423.25;5044547;28;20062;-75
2023/04/03 01:17:56;;;;;;;0.10;0.03;;;;;;;10.74;85.77;100428.53;5030884;28;20021;-75
2023/04/03 01:20:36;;;;;;;0.40;0.10;;;;;;;10.37;87.88;100424.19;5017464;28;20026;-75
2023/04/03 01:23:10;;;;;;;0.63;0.10;;;;;;;9.98;92.42;100415.66;5019875;28;20410;-75
2023/04/03 01:25:42;;;;;;;0.20;0.10;;;;;;;10.08;89.09;100419.06;5019024;28;20030;-75
2023/04/03 01:28:11;;;;;;;0.10;0.03;;;;;;;10.22;88.76;100423.84;5021132;28;20462;-75
2023/04/03 01:30:45;;;;;;;0.38;0.10;;;;;;;10.26;88.45;100425.19;5016856;28;20459;-75
2023/04/03 01:33:10;;;;;;;0.10;0.00;;;;;;;10.01;91.08;100419.75;5016779;28;20033;-75
2023/04/03 01:35:37;;;;;;;0.95;0.10;;;;;;;9.79;91.62;100421.75;5020916;28;20471;-75
2023/04/03 01:38:02;;;;;;;0.30;0.10;;;;;;;10.06;88.23;100415.78;5013228;28;20462;-75
2023/04/03 01:40:28;;;;;;;0.90;0.10;;;;;;;10.29;85.09;100426.69;5019100;28;20025;-75
2023/04/03 01:42:54;;;;;;;0.30;0.10;;;;;;;10.42;81.94;100413.31;5018018;28;20033;-75
2023/04/03 01:45:19;;;;;;;1.08;0.10;;;;;;;10.41;82.96;100416.88;5018599;28;20053;-75
2023/04/03 01:47:45;;;;;;;0.20;0.00;;;;;;;10.47;79.02;100414.53;5018245;28;20112;-75
2023/04/03 01:50:10;;;;;;;0.40;0.20;;;;;;;10.40;81.28;100410.06;5016744;28;20385;-75
2023/04/03 01:52:35;;;;;;;0.20;0.10;;;;;;;10.25;83.68;100413.16;5019237;28;20026;-75
2023/04/03 01:55:01;;;;;;;0.40;0.10;;;;;;;9.94;86.58;100412.53;5021344;28;20022;-75
2023/04/03 01:57:26;;;;;;;0.30;0.10;;;;;;;9.84;86.80;100419.56;5016142;28;20133;-75
2023/04/03 01:59:52;;;;;;;0.30;0.10;;;;;;;9.78;87.01;100408.88;5016539;28;20033;-75
2023/04/03 02:02:17;;;;;;;0.30;0.10;;;;;;;9.89;84.53;100408.72;5023253;28;20044;-75
2023/04/03 02:04:42;;;;;;;0.22;0.10;;;;;;;10.06;83.86;100399.34;5018475;28;20085;-75
2023/04/03 02:07:08;;;;;;;0.10;0.00;;;;;;;9.79;86.58;100406.16;5017014;28;20128;-75
2023/04/03 02:09:33;;;;;;;0.30;0.10;;;;;;;9.63;86.82;100406.72;5016749;28;20180;-74
2023/04/03 02:11:59;;;;;;;1.90;0.20;;;;;;;9.92;83.67;100403.25;5018951;28;20037;-75
2023/04/03 02:14:24;;;;;;;0.22;0.10;;;;;;;9.96;83.27;100407.16;5018626;28;20859;-75
2023/04/03 02:16:50;;;;;;;0.20;0.10;;;;;;;9.96;83.38;100401.97;5017642;28;20045;-75
2023/04/03 02:19:16;;;;;;;0.40;0.10;;;;;;;9.95;81.28;100398.53;5017954;28;20124;-75
2023/04/03 02:21:41;;;;;;;0.32;0.10;;;;;;;9.96;82.86;100396.75;5021885;28;20044;-75
2023/04/03 02:24:07;;;;;;;0.32;0.10;;;;;;;9.96;81.14;100401.97;5019854;28;20331;-75
2023/04/03 02:26:32;;;;;;;0.40;0.10;;;;;;;10.00;80.88;100395.53;5019969;28;20041;-75
2023/04/03 02:28:58;;;;;;;0.38;0.10;;;;;;;9.98;81.14;100389.63;5018524;28;20034;-75
2023/04/03 02:31:23;;;;;;;1.02;0.20;;;;;;;9.97;79.76;100393.19;5018319;28;20048;-76
2023/04/03 02:33:49;;;;;;;1.13;0.10;;;;;;;9.85;81.96;100399.56;5019250;28;20038;-76
2023/04/03 02:36:15;;;;;;;0.73;0.10;;;;;;;9.84;81.27;100396.13;5028868;28;20076;-76
2023/04/03 02:38:41;;;;;;;0.30;0.10;;;;;;;9.84;79.22;100395.31;5030583;28;20025;-75
2023/04/03 02:41:09;;;;;;;0.40;0.10;;;;;;;9.99;79.13;100396.47;5034007;28;20045;-76
2023/04/03 02:43:35;;;;;;;1.20;0.20;;;;;;;9.96;79.81;100388.94;5032900;28;20086;-76
2023/04/03 02:46:00;;;;;;;0.30;0.10;;;;;;;9.85;78.46;100389.97;5032021;28;20038;-75
2023/04/03 02:48:26;;;;;;;0.43;0.13;;;;;;;10.04;76.20;100399.47;5029627;28;20087;-75
2023/04/03 02:50:51;;;;;;;0.93;0.10;;;;;;;10.06;75.87;100394.13;5020577;28;20040;-75
2023/04/03 02:53:18;;;;;;;0.65;0.17;;;;;;;10.07;75.13;100386.19;5019763;28;20060;-76
2023/04/03 02:55:44;;;;;;;3.22;0.20;;;;;;;10.07;75.83;100390.56;5016786;28;20380;-75
2023/04/03 02:58:10;;;;;;;2.15;0.10;;;;;;;9.95;76.33;100390.75;5017418;28;20034;-75
2023/04/03 03:00:36;;;;;;;0.20;0.10;;;;;;;10.09;73.36;100381.66;5031335;28;20107;-75
2023/04/03 03:03:02;;;;;;;0.38;0.20;;;;;;;10.12;74.07;100393.56;5029288;28;20037;-75
2023/04/03 03:05:27;;;;;;;0.30;0.10;;;;;;;10.04;75.17;100389.06;5042485;28;20529;-76
2023/04/03 03:07:53;;;;;;;0.40;0.10;;;;;;;9.92;74.97;100392.84;5038554;28;20611;-75
2023/04/03 03:10:19;;;;;;;2.42;0.10;;;;;;;9.98;73.28;100390.44;5029569;28;20541;-75
2023/04/03 03:12:45;;;;;;;0.20;0.10;;;;;;;10.08;73.37;100395.63;5030401;28;20031;-76
2023/04/03 03:15:11;;;;;;;0.10;0.10;;;;;;;10.05;72.71;100393.31;5019870;28;20036;-76
2023/04/03 03:17:36;;;;;;;0.85;0.10;;;;;;;10.06;72.26;100391.53;5018129;28;20056;-75
2023/04/03 03:20:03;;;;;;;1.00;0.17;;;;;;;9.93;73.58;100404.84;5015565;28;20124;-76
2023/04/03 03:22:29;;;;;;;0.38;0.10;;;;;;;9.99;71.35;100393.88;5019554;28;20124;-75
2023/04/03 03:24:55;;;;;;;0.70;0.20;;;;;;;9.97;72.51;100391.41;5017564;28;20535;-75
2023/04/03 03:27:20;;;;;;;0.43;0.20;;;;;;;9.90;71.28;100386.94;5015098;28;20785;-75
2023/04/03 03:29:46;;;;;;;0.10;0.10;;;;;;;10.03;70.20;100399.63;5017753;28;20045;-74
2023/04/03 03:32:12;;;;;;;0.50;0.30;;;;;;;10.01;67.83;100417.16;5014123;28;20030;-75
2023/04/03 03:34:37;;;;;;;1.55;0.20;;;;;;;9.93;70.30;100410.88;5013201;28;20045;-74
2023/04/03 03:37:03;;;;;;;0.55;0.20;;;;;;;9.91;68.39;100410.22;5017886;28;20089;-75
2023/04/03 03:39:28;;;;;;;0.38;0.10;;;;;;;9.90;69.82;100402.56;5016337;28;20048;-75
2023/04/03 03:41:54;;;;;;;0.40;0.10;;;;;;;9.77;71.35;100407.25;5017787;28;20097;-75
2023/04/03 03:44:20;;;;;;;0.40;0.20;;;;;;;9.66;70.77;100410.81;5014858;28;20033;-74
2023/04/03 03:46:46;;;;;;;0.22;0.20;;;;;;;9.58;70.98;100413.28;5020427;28;20033;-76
2023/04/03 03:49:12;;;;;;;0.47;0.20;;;;;;;9.42;72.15;100428.66;5016248;28;20450;-73
2023/04/03 03:51:40;;;;;;;1.20;0.20;;;;;;;9.23;72.72;100419.91;5019610;28;20802;-74
2023/04/03 03:54:06;;;;;;;5.75;0.30;;;;;;;9.11;74.26;100417.56;5013620;28;20033;-76
2023/04/03 03:56:32;;;;;;;0.63;0.20;;;;;;;9.10;73.18;100415.94;5016083;28;20029;-76
2023/04/03 03:58:57;;;;;;;0.63;0.20;;;;;;;9.05;74.08;100423.31;5018121;28;20368;-74
2023/04/03 04:01:24;;;;;;;0.70;0.20;;;;;;;8.95;73.71;100434.53;5017631;28;20090;-77
2023/04/03 04:03:50;;;;;;;0.73;0.28;;;;;;;8.84;73.91;100432.06;5016465;28;20042;-76
2023/04/03 04:06:15;;;;;;;0.68;0.20;;;;;;;8.79;74.24;100420.41;5016830;28;20155;-75
2023/04/03 04:08:41;;;;;;;0.60;0.30;;;;;;;8.68;73.40;100436.94;5019759;28;20030;-75
2023/04/03 04:11:07;;;;;;;0.68;0.30;;;;;;;8.63;74.28;100433.91;5013274;28;20460;-76
2023/04/03 04:13:33;;;;;;;0.95;0.40;;;;;;;8.63;73.04;100426.94;5031819;28;20040;-77
2023/04/03 04:15:59;;;;;;;0.60;0.30;;;;;;;8.61;73.93;100438.41;5017394;28;20037;-76
2023/04/03 04:18:24;;;;;;;0.43;0.20;;;;;;;8.53;72.92;100435.66;5020515;28;20025;-76
2023/04/03 04:20:50;;;;;;;1.38;0.40;;;;;;;8.59;73.12;100435.13;5020678;28;20037;-74
2023/04/03 04:23:16;;;;;;;0.95;0.50;;;;;;;8.52;72.58;100427.03;5016964;28;20056;-74
2023/04/03 04:25:45;;;;;;;0.38;0.20;;;;;;;8.46;72.90;100437.16;5027789;28;20028;-74
2023/04/03 04:28:11;;;;;;;0.55;0.30;;;;;;;8.45;73.05;100438.09;5030910;28;20043;-75
2023/04/03 04:30:36;;;;;;;1.13;0.30;;;;;;;8.55;69.20;100429.38;5033051;28;20029;-74
2023/04/03 04:33:02;;;;;;;1.02;0.20;;;;;;;8.64;71.13;100438.16;5030024;28;20029;-75
2023/04/03 04:35:27;;;;;;;2.33;0.50;;;;;;;8.59;71.09;100435.13;5029303;28;20029;-74
2023/04/03 04:37:52;;;;;;;0.70;0.30;;;;;;;8.50;70.72;100441.94;5021949;28;20035;-75
2023/04/03 04:40:18;;;;;;;1.58;0.35;;;;;;;8.44;71.12;100436.47;5014901;28;20037;-75
2023/04/03 04:42:43;;;;;;;0.68;0.20;;;;;;;8.54;70.08;100442.47;5021549;28;20022;-76
2023/04/03 04:45:09;;;;;;;0.70;0.30;;;;;;;8.58;70.49;100438.66;5023961;28;20064;-72
2023/04/03 04:47:35;;;;;;;1.05;0.30;;;;;;;8.55;70.84;100439.75;5029391;28;20477;-74
2023/04/03 04:50:00;;;;;;;1.35;0.30;;;;;;;8.45;70.17;100451.91;5016846;28;20068;-73
2023/04/03 04:52:26;;;;;;;1.15;0.47;;;;;;;8.43;69.76;100450.41;5015834;28;20041;-71
2023/04/03 04:54:51;;;;;;;0.82;0.30;;;;;;;8.30;70.74;100443.63;5015428;28;20034;-73
2023/04/03 04:57:17;;;;;;;0.77;0.30;;;;;;;8.19;70.70;100459.25;5016393;28;20026;-74
2023/04/03 04:59:42;;;;;;;0.70;0.20;;;;;;;8.37;69.15;100464.72;5011105;28;20144;-73
2023/04/03 05:02:07;;;;;;;6.38;0.30;;;;;;;8.47;66.63;100459.56;5011040;28;20040;-74
2023/04/03 05:04:33;;;;;;;0.60;0.25;;;;;;;8.52;66.88;100460.78;5016873;28;20041;-73
2023/04/03 05:06:59;;;;;;;0.50;0.30;;;;;;;8.43;68.04;100484.16;5021491;28;20164;-74
2023/04/03 05:09:24;;;;;;;0.50;0.20;;;;;;;8.28;69.73;100468.88;5024396;28;20040;-72
2023/04/03 05:11:50;;;;;;;0.90;0.30;;;;;;;8.13;68.31;100469.34;5022082;28;20032;-72
2023/04/03 05:14:16;;;;;;;0.52;0.30;;;;;;;8.15;67.40;100478.63;5021112;28;21075;-73
2023/04/03 05:16:41;;;;;;;1.45;0.30;;;;;;;8.17;67.65;100475.91;5024247;28;20494;-72
2023/04/03 05:19:07;;;;;;;0.65;0.40;;;;;;;8.16;67.86;100469.91;5022465;28;20052;-74
2023/04/03 05:21:32;;;;;;;1.00;0.30;;;;;;;8.19;68.21;100490.41;5031247;28;20382;-73
2023/04/03 05:23:59;;;;;;;0.47;0.20;;;;;;;8.31;66.37;100478.19;5031796;28;20116;-72
2023/04/03 05:26:25;;;;;;;0.70;0.30;;;;;;;8.31;67.08;100483.38;5032322;28;20026;-72
2023/04/03 05:28:51;;;;;;;0.30;0.13;;;;;;;8.27;66.17;100488.00;5034343;28;20029;-73
2023/04/03 05:31:16;;;;;;;1.35;0.20;;;;;;;8.31;65.79;100489.38;5037392;28;20030;-71
2023/04/03 05:33:42;;;;;;;0.65;0.22;;;;;;;8.27;66.53;100506.16;5036264;28;20056;-71
2023/04/03 05:36:08;;;;;;;1.17;0.30;;;;;;;8.20;66.91;100492.06;5021597;28;20255;-71
2023/04/03 05:38:33;;;;;;;1.45;0.40;;;;;;;8.31;64.34;100502.38;5035899;28;20364;-71
2023/04/03 05:40:59;;;;;;;0.60;0.25;;;;;;;8.36;63.64;100496.00;5021077;28;20041;-72
2023/04/03 05:43:24;;;;;;;0.57;0.30;;;;;;;8.26;64.88;100496.75;5024543;28;20090;-73
2023/04/03 05:45:51;;;;;;;1.40;0.20;;;;;;;8.10;65.83;100509.34;5020550;28;20075;-73
2023/04/03 05:48:16;;;;;;;0.77;0.28;;;;;;;8.12;65.75;100510.03;5022328;28;20044;-73
2023/04/03 05:50:42;;;;;;;0.57;0.20;;;;;;;8.19;64.35;100502.56;5021813;28;20033;-73
2023/04/03 05:53:25;;;;;;;3.05;0.20;;;;;;;8.20;61.54;100523.19;5020806;28;20041;-74
2023/04/03 05:55:50;;;;;;;0.43;0.20;;;;;;;8.35;62.98;100508.16;5037265;28;20095;-74
2023/04/03 05:58:16;;;;;;;1.02;0.30;;;;;;;8.42;61.56;100491.13;5034139;28;20034;-73
2023/04/03 06:00:41;;;;;;;0.57;0.20;;;;;;;8.45;61.57;100503.00;5030325;28;20048;-73
2023/04/03 06:03:06;;;;;;;0.50;0.20;;;;;;;8.41;62.40;100509.41;5032839;28;20051;-74
2023/04/03 06:05:33;;;;;;;0.93;0.22;;;;;;;8.28;62.86;100509.59;5040272;28;20053;-73
2023/04/03 06:07:58;;;;;;;1.48;0.30;;;;;;;8.18;63.30;100521.69;5031707;28;20025;-72
2023/04/03 06:10:24;;;;;;;1.17;0.32;;;;;;;8.05;62.26;100498.50;5034960;28;20418;-73
2023/04/03 06:12:51;;;;;;;1.38;0.30;;;;;;;8.13;63.41;100526.44;5031693;28;20544;-73
2023/04/03 06:15:17;;;;;;;1.75;0.20;;;;;;;8.28;61.04;100531.19;5033549;28;20135;-73
2023/04/03 06:17:43;;;;;;;0.70;0.30;;;;;;;8.42;61.17;100524.88;5030147;28;20022;-72
2023/04/03 06:20:09;;;;;;;1.90;0.30;;;;;;;8.39;62.38;100527.72;5019973;28;20029;-73
2023/04/03 06:22:35;;;;;;;1.05;0.20;;;;;;;8.45;62.50;100518.59;5016926;28;20043;-73
2023/04/03 06:25:01;;;;;;;0.47;0.20;;;;;;;8.57;61.36;100518.34;5026863;28;20033;-73
2023/04/03 06:27:26;;;;;;;0.70;0.30;;;;;;;8.59;62.41;100528.63;5030602;28;20028;-73
2023/04/03 06:29:52;;;;;;;0.93;0.20;;;;;;;8.60;61.89;100510.31;5023997;28;20051;-74
2023/04/03 06:32:17;;;;;;;2.33;0.80;;;;;;;8.82;59.72;100509.31;5016282;28;20038;-73
2023/04/03 06:34:42;;;;;;;0.70;0.30;;;;;;;9.00;60.20;100517.25;5014803;28;20098;-74
2023/04/03 06:37:19;;;;;;;0.50;0.20;;;;;;;9.13;61.01;100512.66;5017539;28;20313;-73
2023/04/03 06:39:45;;;;;;;0.40;0.20;;;;;;;9.31;60.82;100525.81;5018083;28;20387;-72
2023/04/03 06:42:10;;;;;;;0.77;0.30;;;;;;;9.31;59.30;100525.81;5016104;28;20030;-73
2023/04/03 06:44:36;;;;;;;0.77;0.20;;;;;;;9.02;59.65;100524.94;5018764;28;20041;-73
2023/04/03 06:47:01;;;;;;;0.93;0.30;;;;;;;9.07;61.35;100530.56;5016795;28;20056;-71
2023/04/03 06:49:27;;;;;;;0.75;0.30;;;;;;;9.25;57.44;100558.38;5017281;28;20026;-73
2023/04/03 06:51:53;;;;;;;1.77;0.20;;;;;;;9.36;61.03;100531.44;5017346;28;20498;-73
2023/04/03 06:54:18;;;;;;;0.50;0.20;;;;;;;9.48;57.34;100529.50;5018859;28;20061;-71
2023/04/03 06:56:44;;;;;;;1.48;0.20;;;;;;;9.38;58.35;100532.13;5037198;28;20486;-71
2023/04/03 06:59:12;;;;;;;1.10;0.30;;;;;;;9.47;58.76;100541.69;5032928;28;20099;-73
2023/04/03 07:01:37;;;;;;;0.82;0.30;;;;;;;9.51;59.22;100537.88;5033083;28;20442;-74
2023/04/03 07:04:02;;;;;;;0.90;0.30;;;;;;;9.57;59.67;100537.31;5030245;28;20056;-73
2023/04/03 07:06:28;;;;;;;0.63;0.30;;;;;;;9.55;59.80;100538.41;5026492;28;20037;-74
2023/04/03 07:08:54;;;;;;;0.80;0.30;;;;;;;9.70;57.55;100541.44;5032535;28;20141;-73
2023/04/03 07:11:20;;;;;;;0.85;0.30;;;;;;;9.72;58.25;100534.31;5030701;28;20099;-74
2023/04/03 07:13:45;;;;;;;2.40;0.22;;;;;;;10.09;58.95;100543.06;5029810;28;20356;-73
2023/04/03 07:16:11;;;;;;;0.70;0.30;;;;;;;10.12;57.26;100540.19;5026846;28;20026;-74
2023/04/03 07:18:36;;;;;;;1.00;0.30;;;;;;;10.29;57.94;100539.50;5028108;28;20434;-74
2023/04/03 07:21:03;;;;;;;0.60;0.20;;;;;;;10.43;56.00;100537.38;5022860;28;20029;-73
2023/04/03 07:23:28;;;;;;;0.80;0.20;;;;;;;10.34;54.04;100540.84;5020628;28;20140;-74
2023/04/03 07:25:54;;;;;;;0.95;0.20;;;;;;;10.19;56.60;100537.84;5029713;28;20463;-74
2023/04/03 07:28:22;;;;;;;0.50;0.20;;;;;;;10.58;56.55;100538.56;5013851;28;20041;-74
2023/04/03 07:30:53;;;;;;;0.98;0.20;;;;;;;10.93;55.18;100536.06;5028936;28;20029;-74
2023/04/03 07:33:21;;;;;;;0.70;0.30;;;;;;;10.97;55.51;100544.44;5028486;28;20110;-73
2023/04/03 07:35:47;;;;;;;0.75;0.22;;;;;;;11.03;55.71;100543.03;5014325;28;20396;-73
2023/04/03 07:38:12;;;;;;;1.20;0.30;;;;;;;11.74;55.94;100532.66;5013935;28;20037;-74
2023/04/03 07:40:39;;;;;;;0.60;0.22;;;;;;;12.08;51.09;100546.66;5030020;28;20037;-73
2023/04/03 07:43:06;;;;;;;0.55;0.20;;;;;;;12.39;48.31;100554.03;5031080;28;20029;-73
2023/04/03 07:45:34;;;;;;;0.45;0.20;;;;;;;12.67;48.73;100557.31;5029572;28;20076;-74
2023/04/03 07:47:59;;;;;;;0.47;0.20;;;;;;;13.43;48.80;100545.00;5028252;28;20078;-74
2023/04/03 07:50:26;;;;;;;1.00;0.20;;;;;;;13.75;48.94;100551.25;5010077;28;20030;-74
2023/04/03 07:52:52;;;;;;;2.28;0.20;;;;;;;13.43;48.71;100562.50;5011967;28;20477;-74
2023/04/03 07:55:17;;;;;;;2.17;0.30;;;;;;;13.48;48.45;100574.16;5025422;28;20036;-74
2023/04/03 07:57:43;;;;;;;0.50;0.20;;;;;;;13.18;48.85;100559.03;5026099;28;20038;-74
2023/04/03 08:00:09;;;;;;;0.70;0.20;;;;;;;13.31;48.55;100554.13;5020243;28;20474;-73
2023/04/03 08:02:35;;;;;;;3.17;0.20;;;;;;;12.57;49.18;100534.72;5029430;28;20040;-72
2023/04/03 08:05:00;;;;;;;1.08;0.20;;;;;;;12.62;50.55;100537.69;5033775;28;20053;-73
2023/04/03 08:07:26;;;;;;;0.47;0.20;;;;;;;13.14;50.23;100549.81;5033320;28;20104;-72
2023/04/03 08:09:52;;;;;;;0.45;0.10;;;;;;;13.30;50.58;100549.88;5028567;28;20442;-73
2023/04/03 08:12:17;;;;;;;0.60;0.10;;;;;;;13.39;49.73;100553.34;5029157;28;20034;-72
2023/04/03 08:14:43;;;;;;;0.60;0.20;;;;;;;12.58;49.38;100548.63;5028177;28;20025;-73
2023/04/03 08:17:11;;;;;;;0.40;0.20;;;;;;;12.57;48.84;100539.13;5026771;28;20037;-73
2023/04/03 08:19:38;;;;;;;0.40;0.20;;;;;;;12.22;47.75;100579.25;5015395;28;20105;-73
2023/04/03 08:22:04;;;;;;;0.98;0.20;;;;;;;11.93;48.15;100566.44;5028944;28;20042;-73
2023/04/03 08:24:31;;;;;;;2.17;0.20;;;;;;;11.80;48.71;100537.31;5028444;28;20057;-73
2023/04/03 08:26:56;;;;;;;0.60;0.10;;;;;;;11.95;49.37;100535.78;5035652;28;20029;-73
2023/04/03 08:29:22;;;;;;;0.88;0.20;;;;;;;12.11;50.01;100546.38;5030451;28;20132;-73
2023/04/03 08:31:49;;;;;;;0.70;0.17;;;;;;;12.68;50.46;100551.13;5033383;28;20053;-73
2023/04/03 08:34:15;;;;;;;0.50;0.20;;;;;;;12.74;49.59;100522.56;5028906;28;20029;-72
2023/04/03 08:36:40;;;;;;;0.50;0.20;;;;;;;12.80;49.12;100552.47;5032596;28;20094;-72
2023/04/03 08:39:06;;;;;;;0.40;0.20;;;;;;;12.33;47.97;100545.03;5030932;28;20060;-73
2023/04/03 08:41:35;;;;;;;0.60;0.17;;;;;;;11.84;46.55;100559.50;5035413;28;20512;-73
2023/04/03 08:44:22;;;;;;;0.88;0.20;;;;;;;12.24;47.64;100544.19;5028442;28;20042;-73
2023/04/03 08:47:04;;;;;;;0.63;0.22;;;;;;;12.91;44.46;100532.09;5034073;28;20029;-73
2023/04/03 08:49:51;;;;;;;0.93;0.45;;;;;;;12.95;45.39;100532.59;5025375;28;20033;-74
2023/04/03 08:52:35;;;;;;;0.35;0.15;;;;;;;12.79;42.93;100528.13;5035492;28;20047;-74
2023/04/03 08:55:04;;;;;;;0.68;0.30;;;;;;;13.05;45.47;100541.13;5030767;28;20089;-73
2023/04/03 08:57:34;;;;;;;0.70;0.20;;;;;;;13.33;40.83;100541.72;5025342;28;20107;-73
2023/04/03 09:00:05;;;;;;;0.45;0.20;;;;;;;13.47;43.82;100541.09;5034803;28;20036;-74
2023/04/03 09:02:54;;;;;;;0.55;0.20;;;;;;;14.24;41.94;100531.91;5030861;28;20483;-74
2023/04/03 09:05:25;;;;;;;0.32;0.10;;;;;;;13.94;42.55;100537.84;5029827;28;20069;-73
2023/04/03 09:08:07;;;;;;;0.70;0.20;;;;;;;12.85;43.85;100534.50;5032790;28;20473;-74
2023/04/03 09:10:37;;;;;;;1.58;0.20;;;;;;;12.84;47.01;100531.06;5040330;28;20120;-72
2023/04/03 09:13:28;;;;;;;0.40;0.20;;;;;;;12.90;45.83;100543.53;5033833;28;20396;-73
2023/04/03 09:15:55;;;;;;;2.63;0.20;;;;;;;12.77;47.92;100519.59;5032503;28;20060;-73
2023/04/03 09:18:28;;;;;;;0.75;0.10;;;;;;;12.53;45.78;100530.78;5030968;28;20053;-73
2023/04/03 09:20:57;;;;;;;0.52;0.20;;;;;;;12.15;46.98;100549.50;5025291;28;20054;-72
2023/04/03 09:23:32;;;;;;;0.43;0.20;;;;;;;11.95;43.82;100541.84;5031024;28;20414;-73
2023/04/03 09:26:04;;;;;;;0.82;0.30;;;;;;;11.89;46.96;100542.44;5033651;28;20421;-72
2023/04/03 09:28:33;;;;;;;1.08;0.20;;;;;;;12.15;47.73;100545.09;5034522;28;20173;-72
2023/04/03 09:31:01;;;;;;;0.32;0.15;;;;;;;12.25;47.24;100539.78;5028858;28;20108;-72
2023/04/03 09:33:29;;;;;;;0.32;0.10;;;;;;;12.13;46.48;100531.38;5037193;28;20033;-73
2023/04/03 09:35:55;;;;;;;0.60;0.20;;;;;;;12.20;46.67;100528.97;5037181;28;20029;-72
2023/04/03 09:38:22;;;;;;;1.45;0.20;;;;;;;12.29;45.99;100534.06;5031162;28;20110;-73
2023/04/03 09:41:04;;;;;;;0.32;0.10;;;;;;;12.09;43.78;100530.03;5025459;28;20033;-73
2023/04/03 09:43:32;;;;;;;1.48;0.47;;;;;;;12.13;44.29;100539.19;5032088;28;20083;-73
2023/04/03 09:46:22;;;;;;;0.60;0.30;;;;;;;12.25;41.86;100539.78;5036106;28;20025;-73
2023/04/03 09:49:02;;;;;;;0.50;0.20;;;;;;;12.02;42.68;100531.59;5026377;28;20080;-72
2023/04/03 09:51:29;;;;;;;0.63;0.20;;;;;;;12.03;42.86;100527.19;5030885;28;20038;-72
2023/04/03 09:53:55;;;;;;;0.40;0.20;;;;;;;12.14;42.56;100530.41;5036423;28;20041;-72
2023/04/03 09:56:28;;;;;;;0.32;0.10;;;;;;;12.17;41.08;100521.44;5031078;28;20041;-73
2023/04/03 09:59:00;;;;;;;0.73;0.20;;;;;;;12.25;40.55;100506.63;5032268;28;20528;-72
2023/04/03 10:01:38;;;;;;;0.40;0.10;;;;;;;12.30;42.25;100506.16;5035200;28;20506;-73
2023/04/03 10:04:10;;;;;;;0.45;0.15;;;;;;;12.28;42.38;100518.56;5031163;28;20499;-72
2023/04/03 10:06:43;;;;;;;0.88;0.10;;;;;;;12.43;42.82;100510.97;5032151;28;20151;-72
2023/04/03 10:09:34;;;;;;;1.17;0.10;;;;;;;12.33;38.33;100492.78;5031402;28;20368;-72
2023/04/03 10:12:06;;;;;;;0.50;0.10;;;;;;;12.30;41.89;100493.91;5027405;28;20041;-73
2023/04/03 10:14:35;;;;;;;0.70;0.20;;;;;;;12.49;41.16;100510.34;5030828;28;20145;-72
2023/04/03 10:17:49;;;;;;;1.15;0.10;;;;;;;12.43;38.34;100517.00;5032248;28;20048;-72
2023/04/03 10:20:32;;;;;;;0.30;0.13;;;;;;;12.29;38.56;100492.25;5024819;28;20041;-72
2023/04/03 10:23:25;;;;;;;0.43;0.20;;;;;;;12.44;40.81;100507.38;5025728;28;20064;-73
2023/04/03 10:25:56;;;;;;;0.30;0.10;;;;;;;12.58;42.16;100485.88;5033790;28;20040;-72
2023/04/03 10:28:30;;;;;;;0.70;0.20;;;;;;;12.62;39.98;100508.13;5031318;28;20044;-74
2023/04/03 10:31:11;;;;;;;0.30;0.10;;;;;;;12.72;39.16;100482.69;5035498;28;20082;-73
2023/04/03 10:34:05;;;;;;;0.55;0.30;;;;;;;12.73;38.50;100513.09;5030674;28;20574;-73
2023/04/03 10:36:34;;;;;;;0.50;0.10;;;;;;;12.71;39.52;100501.13;5031606;28;20037;-73
2023/04/03 10:39:20;;;;;;;0.57;0.10;;;;;;;12.66;37.31;100487.72;5031182;28;20048;-74
2023/04/03 10:41:46;;;;;;;0.52;0.20;;;;;;;12.65;39.56;100510.44;5030212;28;20112;-73
2023/04/03 10:44:20;;;;;;;1.10;0.10;;;;;;;12.71;40.13;100477.63;5034789;28;20124;-73
2023/04/03 10:46:53;;;;;;;0.75;0.20;;;;;;;12.76;38.19;100481.38;5034551;28;20066;-74
2023/04/03 10:49:27;;;;;;;0.70;0.10;;;;;;;13.03;40.16;100466.41;5031327;28;20033;-73
2023/04/03 10:52:06;;;;;;;0.82;0.20;;;;;;;13.10;39.68;100481.31;5025602;28;20106;-73
2023/04/03 10:54:53;;;;;;;0.60;0.10;;;;;;;13.00;36.12;100493.72;5025170;28;20021;-72
2023/04/03 10:57:19;;;;;;;0.20;0.10;;;;;;;12.94;37.87;100455.94;5029829;28;20025;-74
2023/04/03 10:59:53;;;;;;;3.40;0.13;;;;;;;13.00;36.95;100454.47;5033356;28;20040;-73
2023/04/03 11:02:26;;;;;;;1.88;0.20;;;;;;;13.02;38.65;100460.38;5027216;28;20025;-73
2023/04/03 11:05:13;;;;;;;0.20;0.10;;;;;;;13.05;38.67;100454.00;5030337;28;20045;-73
2023/04/03 11:07:43;;;;;;;0.77;0.20;;;;;;;13.01;38.20;100437.81;5008128;28;20525;-74
2023/04/03 11:10:24;;;;;;;0.40;0.15;;;;;;;13.07;37.03;100460.72;5031236;28;20037;-73
2023/04/03 11:12:56;;;;;;;0.30;0.10;;;;;;;13.17;37.41;100455.38;5028408;28;20029;-73
2023/04/03 11:15:23;;;;;;;0.88;0.20;;;;;;;13.20;38.84;100448.00;5034721;28;20394;-73
2023/04/03 11:17:54;;;;;;;0.30;0.10;;;;;;;13.04;35.79;100444.53;5031329;28;20487;-74
2023/04/03 11:20:27;;;;;;;0.85;0.10;;;;;;;12.94;39.09;100437.63;5029750;28;20037;-73
2023/04/03 11:23:14;;;;;;;0.40;0.10;;;;;;;13.06;36.94;100429.47;5031971;28;20390;-73
2023/04/03 11:25:42;;;;;;;0.73;0.10;;;;;;;13.08;36.55;100422.28;5023585;28;20029;-74
2023/04/03 11:28:14;;;;;;;0.55;0.10;;;;;;;13.27;35.54;100411.53;5019363;28;20025;-73
2023/04/03 11:31:00;;;;;;;0.40;0.10;;;;;;;13.57;36.79;100421.34;5032050;28;20033;-73
2023/04/03 11:33:43;;;;;;;0.38;0.15;;;;;;;13.26;35.16;100409.91;5023165;28;20104;-73
2023/04/03 11:36:21;;;;;;;1.98;0.10;;;;;;;13.26;35.01;100420.34;5028008;28;20125;-73